sensor_id;sensor_type;location;lat;lon;timestamp;P1;durP1;ratioP1;P2;durP2;ratioP2
23624;SDS011;11989;47.872;12.014;2023-02-15T06:48:26;25.63;;;14.07;;
23624;SDS011;11989;47.872;12.014;2023-02-15T06:50:52;25.05;;;13.75;;
23624;SDS011;11989;47.872;12.014;2023-02-15T06:53:19;23.55;;;13.30;;
23624;SDS011;11989;47.872;12.014;2023-02-15T06:55:46;23.92;;;13.90;;
23624;SDS011;11989;47.872;12.014;2023-02-15T06:58:13;24.73;;;13.65;;
23624;SDS011;11989;47.872;12.014;2023-02-15T07:00:39;24.73;;;14.05;;
23624;SDS011;11989;47.872;12.014;2023-02-15T07:03:06;22.67;;;13.40;;
23624;SDS011;11989;47.872;12.014;2023-02-15T07:05:33;29.98;;;14.10;;
23624;SDS011;11989;47.872;12.014;2023-02-15T07:08:00;29.15;;;14.15;;
23624;SDS011;11989;47.872;12.014;2023-02-15T07:10:28;34.22;;;15.65;;
23624;SDS011;11989;47.872;12.014;2023-02-15T07:12:54;27.42;;;14.15;;
23624;SDS011;11989;47.872;12.014;2023-02-15T07:15:21;22.48;;;13.48;;
23624;SDS011;11989;47.872;12.014;2023-02-15T07:17:49;26.75;;;13.95;;
23624;SDS011;11989;47.872;12.014;2023-02-15T07:20:19;28.45;;;15.15;;
23624;SDS011;11989;47.872;12.014;2023-02-15T07:22:45;25.38;;;14.45;;
23624;SDS011;11989;47.872;12.014;2023-02-15T07:25:13;22.40;;;13.20;;
23624;SDS011;11989;47.872;12.014;2023-02-15T07:27:44;31.20;;;14.43;;
23624;SDS011;11989;47.872;12.014;2023-02-15T07:30:11;24.92;;;14.48;;
23624;SDS011;11989;47.872;12.014;2023-02-15T07:32:38;26.02;;;13.02;;
23624;SDS011;11989;47.872;12.014;2023-02-15T07:35:23;32.03;;;13.57;;
23624;SDS011;11989;47.872;12.014;2023-02-15T07:37:50;27.60;;;13.73;;
23624;SDS011;11989;47.872;12.014;2023-02-15T07:40:18;26.70;;;14.27;;
23624;SDS011;11989;47.872;12.014;2023-02-15T07:42:48;22.83;;;13.07;;
23624;SDS011;11989;47.872;12.014;2023-02-15T07:45:14;20.60;;;11.95;;
23624;SDS011;11989;47.872;12.014;2023-02-15T07:47:41;19.75;;;10.98;;
23624;SDS011;11989;47.872;12.014;2023-02-15T07:50:08;21.10;;;11.98;;
23624;SDS011;11989;47.872;12.014;2023-02-15T07:52:35;21.02;;;11.00;;
23624;SDS011;11989;47.872;12.014;2023-02-15T07:55:03;23.33;;;11.63;;
23624;SDS011;11989;47.872;12.014;2023-02-15T07:57:30;23.95;;;11.52;;
23624;SDS011;11989;47.872;12.014;2023-02-15T07:59:56;27.70;;;11.85;;
23624;SDS011;11989;47.872;12.014;2023-02-15T08:02:23;21.13;;;11.68;;
23624;SDS011;11989;47.872;12.014;2023-02-15T08:04:50;21.27;;;11.73;;
23624;SDS011;11989;47.872;12.014;2023-02-15T08:07:16;22.75;;;11.88;;
23624;SDS011;11989;47.872;12.014;2023-02-15T08:09:43;19.75;;;12.15;;
23624;SDS011;11989;47.872;12.014;2023-02-15T08:12:09;18.63;;;11.02;;
23624;SDS011;11989;47.872;12.014;2023-02-15T08:14:35;19.75;;;11.55;;
23624;SDS011;11989;47.872;12.014;2023-02-15T08:17:01;19.23;;;11.90;;
23624;SDS011;11989;47.872;12.014;2023-02-15T08:19:31;18.30;;;10.95;;
23624;SDS011;11989;47.872;12.014;2023-02-15T08:22:00;19.48;;;11.25;;
23624;SDS011;11989;47.872;12.014;2023-02-15T08:24:28;20.60;;;11.57;;
23624;SDS011;11989;47.872;12.014;2023-02-15T08:26:54;17.83;;;11.23;;
23624;SDS011;11989;47.872;12.014;2023-02-15T08:29:22;20.10;;;10.98;;
23624;SDS011;11989;47.872;12.014;2023-02-15T08:31:54;18.33;;;11.10;;
23624;SDS011;11989;47.872;12.014;2023-02-15T08:34:23;19.10;;;10.82;;
23624;SDS011;11989;47.872;12.014;2023-02-15T08:36:51;19.92;;;11.55;;
23624;SDS011;11989;47.872;12.014;2023-02-15T08:39:18;21.42;;;11.68;;
23624;SDS011;11989;47.872;12.014;2023-02-15T08:41:47;20.65;;;12.05;;
23624;SDS011;11989;47.872;12.014;2023-02-15T08:44:15;22.23;;;13.13;;
23624;SDS011;11989;47.872;12.014;2023-02-15T08:46:43;20.15;;;11.43;;
23624;SDS011;11989;47.872;12.014;2023-02-15T08:49:11;17.85;;;10.75;;
23624;SDS011;11989;47.872;12.014;2023-02-15T08:51:38;20.20;;;11.90;;
23624;SDS011;11989;47.872;12.014;2023-02-15T08:54:06;18.52;;;10.38;;
23624;SDS011;11989;47.872;12.014;2023-02-15T08:56:39;19.45;;;12.05;;
23624;SDS011;11989;47.872;12.014;2023-02-15T08:59:11;17.42;;;11.15;;
23624;SDS011;11989;47.872;12.014;2023-02-15T09:01:38;18.45;;;11.18;;
23624;SDS011;11989;47.872;12.014;2023-02-15T09:04:08;17.10;;;10.65;;
23624;SDS011;11989;47.872;12.014;2023-02-15T09:06:36;21.48;;;11.25;;
23624;SDS011;11989;47.872;12.014;2023-02-15T09:09:02;17.50;;;11.32;;
23624;SDS011;11989;47.872;12.014;2023-02-15T09:11:32;18.60;;;11.25;;
23624;SDS011;11989;47.872;12.014;2023-02-15T09:14:03;19.00;;;10.82;;
23624;SDS011;11989;47.872;12.014;2023-02-15T09:16:31;19.17;;;11.55;;
23624;SDS011;11989;47.872;12.014;2023-02-15T09:18:58;19.27;;;11.20;;
23624;SDS011;11989;47.872;12.014;2023-02-15T09:21:30;19.75;;;12.05;;
23624;SDS011;11989;47.872;12.014;2023-02-15T09:23:58;20.48;;;12.90;;
23624;SDS011;11989;47.872;12.014;2023-02-15T09:26:27;19.85;;;12.05;;
23624;SDS011;11989;47.872;12.014;2023-02-15T09:28:54;18.67;;;11.50;;
23624;SDS011;11989;47.872;12.014;2023-02-15T09:31:23;18.00;;;12.27;;
23624;SDS011;11989;47.872;12.014;2023-02-15T09:33:49;20.85;;;12.57;;
23624;SDS011;11989;47.872;12.014;2023-02-15T09:39:04;18.02;;;10.98;;
23624;SDS011;11989;47.872;12.014;2023-02-15T10:00:07;24.42;;;12.88;;
23624;SDS011;11989;47.872;12.014;2023-02-15T10:05:15;22.50;;;12.75;;
23624;SDS011;11989;47.872;12.014;2023-02-15T10:13:19;17.50;;;12.57;;
23624;SDS011;11989;47.872;12.014;2023-02-15T10:19:04;18.33;;;13.02;;
23624;SDS011;11989;47.872;12.014;2023-02-15T10:26:45;17.50;;;13.20;;
23624;SDS011;11989;47.872;12.014;2023-02-15T10:29:16;16.48;;;13.98;;
23624;SDS011;11989;47.872;12.014;2023-02-15T10:45:03;16.70;;;13.90;;
23624;SDS011;11989;47.872;12.014;2023-02-15T11:00:51;15.98;;;13.52;;
